Time;durP1;ratioP1;P1;durP2;ratioP2;P2;SDS_P1;SDS_P2;PMS_P1;PMS_P2;Temp;Humidity;BMP_temperature;BMP_pressure;BME280_temperature;BME280_humidity;BME280_pressure;Samples;Min_cycle;Max_cycle;Signal;HPM_P1;HPM_P2
2023/06/23 00:01:20;;;;;;;4.95;2.70;;;21.10;99.90;;;;;;4948907;28;20419;-74
2023/06/23 00:03:47;;;;;;;3.63;2.50;;;21.00;99.90;;;;;;4923816;28;20438;-74
2023/06/23 00:06:14;;;;;;;6.30;2.90;;;21.00;99.90;;;;;;4929094;28;20993;-74
2023/06/23 00:08:41;;;;;;;4.05;2.67;;;21.00;99.90;;;;;;4945859;28;20424;-74
2023/06/23 00:11:11;;;;;;;3.75;2.47;;;20.90;99.90;;;;;;4933360;28;21259;-74
2023/06/23 00:13:37;;;;;;;2.90;2.42;;;21.00;99.90;;;;;;4933898;28;20444;-74
2023/06/23 00:16:06;;;;;;;4.65;2.75;;;21.00;99.90;;;;;;4938900;28;20418;-74
2023/06/23 00:18:39;;;;;;;5.80;2.42;;;21.00;99.90;;;;;;4963051;28;20428;-74
2023/06/23 00:21:07;;;;;;;5.00;2.40;;;21.00;99.90;;;;;;4942582;28;20477;-74
2023/06/23 00:23:39;;;;;;;3.55;2.47;;;21.00;99.90;;;;;;4958070;28;20451;-74
2023/06/23 00:26:07;;;;;;;3.90;2.40;;;20.90;99.90;;;;;;4941628;28;20420;-74
2023/06/23 00:28:34;;;;;;;4.32;2.50;;;20.90;99.90;;;;;;4915065;28;20973;-74
2023/06/23 00:31:01;;;;;;;3.25;2.17;;;21.00;99.90;;;;;;4925232;28;20427;-74
2023/06/23 00:33:28;;;;;;;4.00;2.17;;;20.90;99.90;;;;;;4931116;28;20424;-74
2023/06/23 00:35:54;;;;;;;4.55;2.25;;;21.00;99.90;;;;;;4928557;28;20489;-74
2023/06/23 00:38:20;;;;;;;5.95;2.22;;;20.90;99.90;;;;;;4937624;28;20429;-74
2023/06/23 00:40:46;;;;;;;4.93;2.30;;;20.90;99.90;;;;;;4932936;28;20785;-75
2023/06/23 00:43:13;;;;;;;5.47;2.38;;;21.00;99.90;;;;;;4945641;28;20441;-75
2023/06/23 00:45:39;;;;;;;5.45;2.33;;;21.00;99.90;;;;;;4924807;28;20414;-76
2023/06/23 00:48:05;;;;;;;4.07;2.17;;;21.10;99.90;;;;;;4935881;28;20462;-74
2023/06/23 00:50:32;;;;;;;4.90;2.30;;;21.10;99.90;;;;;;4935866;28;20422;-75
2023/06/23 00:53:00;;;;;;;3.58;2.22;;;21.10;99.90;;;;;;4935300;28;20952;-75
2023/06/23 00:55:28;;;;;;;4.38;2.10;;;21.20;99.90;;;;;;4931367;28;20423;-74
2023/06/23 00:57:58;;;;;;;5.63;2.00;;;21.20;99.90;;;;;;4931494;28;20439;-74
2023/06/23 01:00:27;;;;;;;4.05;2.10;;;21.20;99.90;;;;;;4955901;28;20424;-75
2023/06/23 01:02:59;;;;;;;3.47;2.20;;;21.20;99.90;;;;;;4926966;28;20605;-75
2023/06/23 01:05:35;;;;;;;5.50;2.20;;;21.20;99.90;;;;;;4925158;28;20486;-75
2023/06/23 01:08:33;;;;;;;2.47;1.90;;;21.20;99.90;;;;;;4920610;28;20418;-76
2023/06/23 01:11:13;;;;;;;5.00;2.10;;;21.20;99.90;;;;;;4937376;28;20432;-76
2023/06/23 01:13:57;;;;;;;5.25;2.15;;;21.20;99.90;;;;;;4926761;28;20431;-76
2023/06/23 01:16:30;;;;;;;2.78;1.98;;;21.10;99.90;;;;;;4951206;28;20846;-76
2023/06/23 01:19:34;;;;;;;2.70;1.95;;;21.10;99.90;;;;;;4929812;28;20426;-76
2023/06/23 01:22:36;;;;;;;3.45;1.90;;;21.00;99.90;;;;;;4935597;28;20520;-76
2023/06/23 01:25:11;;;;;;;4.50;2.08;;;20.80;99.90;;;;;;4928456;28;20430;-76
2023/06/23 01:27:58;;;;;;;7.07;2.20;;;20.80;99.90;;;;;;4933524;28;20420;-76
2023/06/23 01:30:29;;;;;;;3.95;1.92;;;20.80;99.90;;;;;;4947538;28;20507;-76
2023/06/23 01:33:14;;;;;;;3.60;2.10;;;20.70;99.90;;;;;;4938311;28;20530;-76
2023/06/23 01:35:47;;;;;;;3.88;2.15;;;20.70;99.90;;;;;;4931430;28;20426;-76
2023/06/23 01:38:41;;;;;;;4.45;2.28;;;20.70;99.90;;;;;;4934384;28;21104;-76
2023/06/23 01:41:25;;;;;;;3.78;2.10;;;20.70;99.90;;;;;;4934417;28;20428;-76
2023/06/23 01:43:55;;;;;;;4.50;2.10;;;20.60;99.90;;;;;;4925928;28;20433;-76
2023/06/23 01:46:34;;;;;;;3.85;1.90;;;20.60;99.90;;;;;;4932551;28;20478;-77
2023/06/23 01:49:10;;;;;;;3.47;2.10;;;20.60;99.90;;;;;;4933496;28;20421;-76
2023/06/23 01:51:44;;;;;;;3.85;2.10;;;20.70;99.90;;;;;;4930702;28;20424;-74
2023/06/23 01:54:13;;;;;;;5.50;2.00;;;20.70;99.90;;;;;;4931673;28;21079;-75
2023/06/23 01:56:43;;;;;;;3.95;2.08;;;20.80;99.90;;;;;;4929368;28;20506;-75
2023/06/23 01:59:13;;;;;;;2.92;1.90;;;20.80;99.90;;;;;;4932476;28;20958;-75
2023/06/23 02:01:42;;;;;;;2.83;1.90;;;20.70;99.90;;;;;;4931695;28;20429;-75
2023/06/23 02:04:10;;;;;;;4.95;1.80;;;20.70;99.90;;;;;;4928907;28;20779;-75
2023/06/23 02:06:40;;;;;;;4.18;1.90;;;20.70;99.90;;;;;;4934903;28;20422;-74
2023/06/23 02:09:13;;;;;;;3.93;1.90;;;20.60;99.90;;;;;;4925940;28;20989;-74
2023/06/23 02:11:40;;;;;;;4.20;2.00;;;20.60;99.90;;;;;;4924358;28;20423;-75
2023/06/23 02:14:09;;;;;;;3.75;2.00;;;20.70;99.90;;;;;;4959474;28;20426;-75
2023/06/23 02:16:36;;;;;;;4.50;2.10;;;20.80;99.90;;;;;;4935280;28;20431;-75
2023/06/23 02:19:04;;;;;;;3.63;2.17;;;20.80;99.90;;;;;;4935302;28;20758;-75
2023/06/23 02:21:33;;;;;;;2.22;1.90;;;20.90;99.90;;;;;;4935392;28;20857;-75
2023/06/23 02:24:06;;;;;;;3.90;2.05;;;20.90;99.90;;;;;;4929356;28;20419;-75
2023/06/23 02:26:38;;;;;;;3.45;2.05;;;20.80;99.90;;;;;;4930098;28;20892;-75
2023/06/23 02:29:06;;;;;;;3.13;1.97;;;20.80;99.90;;;;;;4933849;28;20517;-75
2023/06/23 02:31:33;;;;;;;2.90;1.73;;;20.80;99.90;;;;;;4928449;28;20786;-75
2023/06/23 02:34:00;;;;;;;5.18;2.10;;;20.80;99.90;;;;;;4960525;28;20423;-76
2023/06/23 02:36:42;;;;;;;5.90;1.80;;;20.80;99.90;;;;;;4950143;28;20422;-76
2023/06/23 02:39:13;;;;;;;3.25;2.10;;;20.70;99.90;;;;;;4935423;28;20860;-76
2023/06/23 02:41:43;;;;;;;2.70;1.80;;;20.70;99.90;;;;;;4934483;28;20417;-76
2023/06/23 02:44:18;;;;;;;3.73;1.90;;;20.70;99.90;;;;;;4935691;28;20484;-76
2023/06/23 02:46:50;;;;;;;3.75;1.90;;;20.60;99.90;;;;;;4938263;28;20979;-75
2023/06/23 02:49:24;;;;;;;3.67;1.80;;;20.70;99.90;;;;;;4929450;28;20418;-75
2023/06/23 02:52:02;;;;;;;2.45;1.90;;;20.60;99.90;;;;;;4928602;28;20482;-75
2023/06/23 02:54:47;;;;;;;3.70;1.88;;;20.70;99.90;;;;;;4933935;28;20525;-74
2023/06/23 02:57:18;;;;;;;3.75;2.10;;;20.70;99.90;;;;;;4924580;28;20426;-75
2023/06/23 02:59:49;;;;;;;3.45;1.95;;;20.70;99.90;;;;;;4929535;28;21564;-75
2023/06/23 03:02:18;;;;;;;3.67;1.92;;;20.70;99.90;;;;;;4921258;28;20554;-75
2023/06/23 03:04:46;;;;;;;4.55;2.10;;;20.70;99.90;;;;;;4953136;28;20442;-75
2023/06/23 03:07:13;;;;;;;3.83;2.10;;;20.70;99.90;;;;;;4950920;28;20423;-76
2023/06/23 03:09:39;;;;;;;4.32;2.10;;;20.70;99.90;;;;;;4926250;28;21008;-75
2023/06/23 03:12:06;;;;;;;3.80;2.00;;;20.70;99.90;;;;;;4924950;28;20435;-75
2023/06/23 03:14:34;;;;;;;2.80;2.00;;;20.70;99.90;;;;;;4927944;28;20425;-75
2023/06/23 03:17:06;;;;;;;2.88;1.90;;;20.70;99.90;;;;;;4971501;28;20420;-74
2023/06/23 03:20:02;;;;;;;3.92;2.05;;;20.70;99.90;;;;;;4929550;28;20414;-76
2023/06/23 03:22:54;;;;;;;3.08;2.10;;;20.80;99.90;;;;;;4958648;28;21019;-74
2023/06/23 03:25:28;;;;;;;4.32;2.10;;;20.80;99.90;;;;;;4954924;28;20436;-74
2023/06/23 03:28:01;;;;;;;2.85;2.10;;;20.90;99.90;;;;;;4928729;28;20450;-74
2023/06/23 03:30:39;;;;;;;3.50;1.90;;;20.90;99.90;;;;;;4930905;28;20445;-74
2023/06/23 03:33:23;;;;;;;5.38;2.05;;;20.90;99.90;;;;;;4947854;28;20449;-74
2023/06/23 03:35:52;;;;;;;3.33;1.95;;;20.90;99.90;;;;;;4941128;28;20418;-74
2023/06/23 03:38:23;;;;;;;3.15;2.20;;;20.90;99.90;;;;;;4921718;28;20477;-74
2023/06/23 03:41:09;;;;;;;3.25;2.10;;;20.90;99.90;;;;;;4932760;28;20430;-74
2023/06/23 03:43:57;;;;;;;3.80;2.10;;;20.90;99.90;;;;;;4930348;28;20977;-74
2023/06/23 03:46:40;;;;;;;2.75;2.00;;;20.90;99.90;;;;;;4942279;28;20468;-74
2023/06/23 03:49:11;;;;;;;3.17;2.00;;;20.90;99.90;;;;;;4969900;28;20945;-75
2023/06/23 03:51:42;;;;;;;3.75;2.05;;;20.90;99.90;;;;;;4930899;28;20798;-75
2023/06/23 03:54:12;;;;;;;3.33;1.92;;;20.90;99.90;;;;;;4928178;28;20426;-75
2023/06/23 03:56:40;;;;;;;3.15;1.90;;;20.90;99.90;;;;;;4954410;28;20425;-75
2023/06/23 03:59:11;;;;;;;5.20;2.08;;;21.00;99.90;;;;;;4945445;28;20435;-75
2023/06/23 04:01:38;;;;;;;2.97;2.00;;;21.00;99.90;;;;;;4953184;28;20440;-75
2023/06/23 04:04:07;;;;;;;3.83;2.10;;;21.00;99.90;;;;;;4932949;28;20437;-75
2023/06/23 04:06:35;;;;;;;6.55;2.10;;;21.10;99.90;;;;;;4931019;28;20534;-75
2023/06/23 04:09:04;;;;;;;3.17;2.00;;;21.10;99.90;;;;;;4946817;28;20438;-75
2023/06/23 04:11:32;;;;;;;3.10;2.00;;;21.10;99.90;;;;;;4924157;28;20420;-75
2023/06/23 04:14:01;;;;;;;3.72;2.08;;;21.10;99.90;;;;;;4923094;28;20442;-76
2023/06/23 04:16:28;;;;;;;3.70;1.88;;;21.20;99.90;;;;;;4931556;28;21108;-75
2023/06/23 04:18:59;;;;;;;3.30;2.00;;;21.20;99.90;;;;;;4929898;28;20426;-75
2023/06/23 04:21:26;;;;;;;3.08;2.08;;;21.30;99.90;;;;;;4951738;28;20936;-75
2023/06/23 04:23:55;;;;;;;2.40;1.90;;;21.30;99.90;;;;;;4928738;28;20428;-75
2023/06/23 04:26:22;;;;;;;4.00;2.20;;;21.40;99.90;;;;;;4969736;28;20832;-75
2023/06/23 04:28:53;;;;;;;4.10;2.20;;;21.70;99.90;;;;;;4918496;28;20433;-76
2023/06/23 04:31:22;;;;;;;3.35;2.10;;;21.80;99.90;;;;;;4927742;28;20422;-75
2023/06/23 04:33:48;;;;;;;3.20;1.90;;;22.00;99.90;;;;;;4916065;28;20421;-76
2023/06/23 04:36:20;;;;;;;5.00;1.90;;;22.10;99.90;;;;;;4963974;28;20428;-76
2023/06/23 04:38:59;;;;;;;3.50;2.03;;;22.10;99.90;;;;;;4933131;28;20426;-76
2023/06/23 04:41:29;;;;;;;3.17;2.20;;;22.10;99.90;;;;;;4931519;28;20421;-76
2023/06/23 04:44:00;;;;;;;3.10;1.83;;;22.20;99.90;;;;;;4939489;28;20422;-75
2023/06/23 04:46:33;;;;;;;2.50;2.00;;;22.20;99.90;;;;;;4944724;28;20421;-75
2023/06/23 04:49:08;;;;;;;3.78;2.00;;;22.20;99.90;;;;;;4951676;28;20432;-76
2023/06/23 04:51:46;;;;;;;3.20;2.10;;;22.20;99.90;;;;;;4932948;28;20429;-75
2023/06/23 04:54:40;;;;;;;3.40;2.17;;;22.30;99.90;;;;;;4933054;28;20432;-75
2023/06/23 04:57:13;;;;;;;4.68;2.25;;;22.30;99.90;;;;;;4941034;28;20425;-76
2023/06/23 04:59:46;;;;;;;6.35;2.15;;;22.40;99.90;;;;;;4910388;28;20548;-76
2023/06/23 05:02:15;;;;;;;2.95;2.20;;;22.50;99.90;;;;;;4924964;28;21029;-75
2023/06/23 05:04:43;;;;;;;4.47;2.20;;;22.50;99.90;;;;;;4947831;28;20509;-74
2023/06/23 05:07:14;;;;;;;2.70;1.88;;;22.60;99.90;;;;;;4939992;28;20796;-75
2023/06/23 05:09:47;;;;;;;3.88;2.30;;;22.60;99.90;;;;;;4927227;28;20980;-75
2023/06/23 05:12:16;;;;;;;6.38;2.22;;;22.60;99.90;;;;;;4925428;28;20885;-75
2023/06/23 05:14:47;;;;;;;3.13;2.15;;;22.70;99.90;;;;;;4923375;28;20424;-75
2023/06/23 05:17:17;;;;;;;2.80;1.88;;;22.70;99.90;;;;;;4922409;28;20431;-76
2023/06/23 05:19:47;;;;;;;4.20;2.20;;;22.80;99.90;;;;;;4942611;28;20442;-76
2023/06/23 05:22:19;;;;;;;3.72;2.10;;;22.90;99.90;;;;;;4929418;28;21254;-76
2023/06/23 05:24:57;;;;;;;3.70;2.27;;;22.90;99.90;;;;;;4929995;28;20448;-76
2023/06/23 05:27:29;;;;;;;5.35;2.30;;;22.90;99.90;;;;;;4934482;28;21131;-76
2023/06/23 05:29:59;;;;;;;3.95;2.05;;;23.10;99.90;;;;;;4923749;28;20411;-75
2023/06/23 05:32:31;;;;;;;2.78;2.20;;;23.10;99.90;;;;;;4935630;28;20424;-75
2023/06/23 05:35:04;;;;;;;2.97;2.10;;;23.20;99.90;;;;;;4939808;28;22117;-75
2023/06/23 05:37:34;;;;;;;2.58;2.20;;;23.20;99.90;;;;;;4929178;28;20490;-74
2023/06/23 05:40:04;;;;;;;3.40;2.10;;;23.30;99.90;;;;;;4938397;28;20456;-74
2023/06/23 05:42:32;;;;;;;2.60;2.20;;;23.30;99.90;;;;;;4937823;28;20763;-74
2023/06/23 05:45:02;;;;;;;3.28;2.10;;;23.40;99.90;;;;;;4935222;28;21181;-74
2023/06/23 05:47:41;;;;;;;3.22;2.15;;;23.50;99.90;;;;;;4931535;28;20762;-74
2023/06/23 05:50:23;;;;;;;3.45;2.10;;;23.70;99.90;;;;;;4924304;28;21211;-75
2023/06/23 05:53:13;;;;;;;3.10;2.00;;;23.70;99.90;;;;;;4925584;28;20432;-75
2023/06/23 05:55:49;;;;;;;3.90;2.25;;;23.80;99.90;;;;;;4928483;28;20509;-75
2023/06/23 05:58:18;;;;;;;4.90;2.30;;;23.80;99.90;;;;;;4944390;28;20426;-75
2023/06/23 06:00:54;;;;;;;3.72;2.33;;;24.10;99.90;;;;;;4912664;28;20422;-75
2023/06/23 06:03:29;;;;;;;4.75;2.20;;;24.10;99.90;;;;;;4928110;28;20442;-74
2023/06/23 06:05:59;;;;;;;2.97;2.00;;;24.20;99.90;;;;;;4927243;28;20418;-75
2023/06/23 06:08:28;;;;;;;3.88;2.25;;;24.50;99.90;;;;;;4932573;28;20433;-75
2023/06/23 06:10:58;;;;;;;3.00;2.27;;;24.70;99.90;;;;;;4971341;28;20461;-75
2023/06/23 06:13:26;;;;;;;3.77;2.37;;;24.80;99.90;;;;;;4931355;28;20439;-75
2023/06/23 06:15:55;;;;;;;2.72;2.10;;;24.80;99.90;;;;;;4923967;28;21032;-75
2023/06/23 06:18:24;;;;;;;4.68;2.00;;;25.00;99.90;;;;;;4923584;28;20457;-75
2023/06/23 06:20:54;;;;;;;2.53;1.93;;;25.30;99.90;;;;;;4936335;28;20479;-75
2023/06/23 06:23:23;;;;;;;3.72;2.20;;;25.40;99.90;;;;;;4928505;28;20431;-74
2023/06/23 06:25:54;;;;;;;5.82;2.25;;;25.40;99.90;;;;;;4927777;28;20418;-74
2023/06/23 06:28:24;;;;;;;4.13;2.28;;;25.50;99.90;;;;;;4925996;28;20523;-74
2023/06/23 06:30:52;;;;;;;6.35;2.25;;;25.60;99.90;;;;;;4925180;28;20416;-75
2023/06/23 06:33:20;;;;;;;3.47;2.13;;;25.60;99.90;;;;;;4955250;28;20411;-74
2023/06/23 06:35:51;;;;;;;4.00;2.30;;;25.80;99.90;;;;;;4919463;28;20939;-74
2023/06/23 06:38:20;;;;;;;3.40;2.22;;;25.80;99.90;;;;;;4950177;28;20503;-74
2023/06/23 06:40:50;;;;;;;6.00;2.40;;;26.10;99.90;;;;;;4924927;28;20995;-74
2023/06/23 06:43:17;;;;;;;3.92;2.40;;;26.30;99.90;;;;;;4920248;28;20929;-75
2023/06/23 06:45:47;;;;;;;3.60;2.50;;;26.30;99.90;;;;;;4926590;28;20432;-74
2023/06/23 06:48:14;;;;;;;4.03;2.20;;;26.40;99.90;;;;;;4931803;28;22638;-74
2023/06/23 06:50:41;;;;;;;3.40;2.10;;;26.40;99.90;;;;;;4926291;28;20422;-74
2023/06/23 06:53:10;;;;;;;4.00;2.35;;;26.40;99.90;;;;;;4933914;28;20448;-74
2023/06/23 06:55:39;;;;;;;4.68;2.20;;;26.40;99.90;;;;;;4931140;28;20430;-74
2023/06/23 06:58:05;;;;;;;4.03;2.20;;;26.50;99.90;;;;;;4953681;28;20789;-74
2023/06/23 07:00:32;;;;;;;4.07;2.58;;;26.70;99.90;;;;;;4922760;28;20915;-74
2023/06/23 07:02:59;;;;;;;10.17;2.50;;;26.90;99.90;;;;;;4938057;28;20426;-74
2023/06/23 07:05:25;;;;;;;6.63;2.30;;;27.00;99.90;;;;;;4921409;28;20420;-74
2023/06/23 07:07:52;;;;;;;2.75;2.20;;;27.20;99.90;;;;;;4940675;28;20420;-74
2023/06/23 07:10:18;;;;;;;5.07;2.30;;;27.30;99.90;;;;;;4934335;28;20455;-74
2023/06/23 07:12:45;;;;;;;5.67;2.40;;;27.40;99.90;;;;;;4929535;28;20982;-74
2023/06/23 07:15:11;;;;;;;4.07;2.28;;;27.50;99.90;;;;;;4929849;28;20468;-75
2023/06/23 07:17:38;;;;;;;2.22;1.98;;;27.60;99.90;;;;;;4966676;28;20414;-75
2023/06/23 07:20:05;;;;;;;5.95;2.47;;;27.50;99.90;;;;;;4935090;28;20973;-74
2023/06/23 07:22:33;;;;;;;4.35;2.20;;;27.70;99.90;;;;;;4941996;28;22344;-74
2023/06/23 07:24:59;;;;;;;4.18;2.50;;;27.70;99.90;;;;;;4931927;28;20423;-74
2023/06/23 07:27:26;;;;;;;5.72;2.35;;;27.70;99.90;;;;;;4936607;28;20438;-74
2023/06/23 07:29:52;;;;;;;6.43;2.38;;;27.70;99.90;;;;;;4938429;28;20424;-75
2023/06/23 07:32:18;;;;;;;3.65;2.20;;;27.90;99.90;;;;;;4943223;28;20462;-74
2023/06/23 07:34:45;;;;;;;6.05;2.42;;;28.10;99.90;;;;;;4961693;28;20576;-75
2023/06/23 07:37:11;;;;;;;3.72;2.47;;;28.20;99.90;;;;;;4915973;28;20504;-74
2023/06/23 07:39:38;;;;;;;2.78;2.25;;;28.30;99.90;;;;;;4924319;28;20430;-74
2023/06/23 07:42:05;;;;;;;2.75;2.22;;;28.40;99.90;;;;;;4930778;28;20425;-75
2023/06/23 07:44:34;;;;;;;5.07;2.50;;;28.40;99.90;;;;;;4932200;28;20414;-75
2023/06/23 07:47:00;;;;;;;8.05;2.58;;;28.60;99.90;;;;;;4913111;28;20482;-74
2023/06/23 07:49:26;;;;;;;3.50;2.25;;;28.70;99.80;;;;;;4922244;28;20487;-75
2023/06/23 07:51:53;;;;;;;5.00;2.25;;;28.80;99.20;;;;;;4926820;28;20414;-75
2023/06/23 07:54:19;;;;;;;7.43;2.35;;;29.00;99.20;;;;;;4928756;28;20461;-75
2023/06/23 07:56:45;;;;;;;5.65;2.30;;;29.00;98.70;;;;;;4924430;28;21145;-74
2023/06/23 07:59:12;;;;;;;6.68;2.53;;;29.10;98.70;;;;;;4909138;28;21090;-75
2023/06/23 08:01:38;;;;;;;7.97;2.40;;;29.30;98.40;;;;;;4926278;28;20426;-74
2023/06/23 08:04:04;;;;;;;3.17;2.13;;;29.40;98.30;;;;;;4913570;28;21343;-75
2023/06/23 08:06:31;;;;;;;4.55;2.38;;;29.60;97.80;;;;;;4935096;28;21600;-75
2023/06/23 08:08:57;;;;;;;4.35;2.22;;;29.60;97.80;;;;;;4944867;28;20423;-75
2023/06/23 08:11:24;;;;;;;3.47;2.40;;;29.80;97.80;;;;;;4928326;28;20424;-75
2023/06/23 08:13:50;;;;;;;2.58;2.17;;;29.90;97.40;;;;;;4922974;28;20481;-75
2023/06/23 08:16:17;;;;;;;8.15;2.30;;;30.00;97.40;;;;;;4924221;28;20426;-74
2023/06/23 08:18:44;;;;;;;4.25;2.08;;;30.00;97.00;;;;;;4934031;28;20484;-75
2023/06/23 08:21:10;;;;;;;4.43;2.05;;;30.30;96.20;;;;;;4923797;28;20499;-74
2023/06/23 08:23:36;;;;;;;3.70;2.20;;;30.20;96.30;;;;;;4929071;28;20485;-74
2023/06/23 08:26:03;;;;;;;2.78;2.10;;;30.30;95.70;;;;;;4925954;28;20426;-75
2023/06/23 08:28:30;;;;;;;3.17;2.10;;;30.40;95.30;;;;;;4930735;28;20423;-75
2023/06/23 08:30:57;;;;;;;3.38;1.95;;;30.50;94.90;;;;;;4954637;28;20505;-74
2023/06/23 08:33:24;;;;;;;3.40;1.90;;;30.70;94.20;;;;;;4936141;28;20896;-75
2023/06/23 08:35:50;;;;;;;5.03;2.10;;;30.90;94.10;;;;;;4929208;28;20797;-74
2023/06/23 08:38:16;;;;;;;4.18;2.00;;;31.00;93.70;;;;;;4933871;28;20964;-75
2023/06/23 08:40:43;;;;;;;3.65;2.10;;;31.10;93.40;;;;;;4929851;28;20532;-74
2023/06/23 08:43:10;;;;;;;2.72;1.90;;;31.10;93.00;;;;;;4928514;28;20568;-75
2023/06/23 08:45:44;;;;;;;3.45;1.83;;;31.20;92.40;;;;;;4924708;28;20903;-75
2023/06/23 08:48:11;;;;;;;4.00;2.20;;;31.20;93.70;;;;;;4926039;28;20449;-75
2023/06/23 08:50:39;;;;;;;4.70;2.00;;;31.50;93.10;;;;;;4930040;28;20962;-74
2023/06/23 08:53:05;;;;;;;6.70;2.20;;;31.60;92.90;;;;;;4935464;28;20457;-74
2023/06/23 08:55:32;;;;;;;2.63;2.10;;;31.80;93.40;;;;;;4937212;28;20429;-75
2023/06/23 08:58:03;;;;;;;3.63;2.10;;;31.90;92.40;;;;;;4930101;28;21176;-74
2023/06/23 09:00:29;;;;;;;3.50;1.90;;;31.90;92.90;;;;;;4928878;28;20483;-74
2023/06/23 09:02:56;;;;;;;4.25;2.13;;;31.90;92.40;;;;;;4936835;28;20428;-74
2023/06/23 09:05:23;;;;;;;2.80;2.13;;;32.00;92.40;;;;;;4934597;28;20591;-74
2023/06/23 09:07:50;;;;;;;3.07;2.10;;;32.10;92.60;;;;;;4938133;28;20429;-75
2023/06/23 09:10:18;;;;;;;3.50;1.90;;;32.20;91.20;;;;;;4926489;28;20457;-74
2023/06/23 09:13:24;;;;;;;4.38;2.03;;;32.20;90.80;;;;;;4939672;28;20426;-74
2023/06/23 09:15:52;;;;;;;4.07;2.28;;;32.20;90.90;;;;;;4925717;28;20427;-74
2023/06/23 09:18:19;;;;;;;2.88;2.20;;;32.30;90.90;;;;;;4923894;28;20428;-75
2023/06/23 09:20:49;;;;;;;3.28;2.15;;;32.30;90.90;;;;;;4936767;28;20495;-75
2023/06/23 09:23:23;;;;;;;2.92;2.08;;;32.40;90.10;;;;;;4932048;28;20426;-75
2023/06/23 09:25:54;;;;;;;3.90;2.10;;;32.50;90.90;;;;;;4935956;28;20827;-75
2023/06/23 09:28:31;;;;;;;6.75;2.22;;;32.40;90.40;;;;;;4944948;28;20447;-75
2023/06/23 09:31:06;;;;;;;3.67;2.10;;;32.60;90.80;;;;;;4941870;28;20700;-75
2023/06/23 09:33:32;;;;;;;2.75;2.10;;;32.60;90.20;;;;;;4942144;28;20419;-75
2023/06/23 09:36:06;;;;;;;3.95;2.00;;;32.70;90.20;;;;;;4930000;28;20423;-75
2023/06/23 09:38:36;;;;;;;3.47;2.05;;;32.80;89.60;;;;;;4960986;28;20994;-73
2023/06/23 09:41:16;;;;;;;3.83;2.13;;;32.80;89.40;;;;;;4944316;28;20558;-74
2023/06/23 09:43:50;;;;;;;4.88;2.47;;;32.90;88.90;;;;;;4935051;28;20430;-73
2023/06/23 09:46:19;;;;;;;3.53;2.10;;;33.00;90.10;;;;;;4929984;28;20425;-75
2023/06/23 09:48:49;;;;;;;3.00;2.10;;;33.10;87.30;;;;;;4931222;29;20426;-75
2023/06/23 09:51:19;;;;;;;3.15;2.10;;;33.20;87.30;;;;;;4923517;28;20427;-74
2023/06/23 09:53:47;;;;;;;4.10;2.28;;;33.20;87.50;;;;;;4926634;28;20499;-74
2023/06/23 09:56:20;;;;;;;3.88;2.30;;;33.10;87.70;;;;;;4928351;28;20520;-75
2023/06/23 09:58:48;;;;;;;4.28;2.08;;;33.20;86.20;;;;;;4924101;28;20430;-75
2023/06/23 10:01:17;;;;;;;3.70;2.05;;;33.20;86.20;;;;;;4930669;28;20972;-75
2023/06/23 10:03:45;;;;;;;5.93;2.15;;;33.10;85.30;;;;;;4962582;28;20413;-75
2023/06/23 10:06:35;;;;;;;3.30;2.10;;;33.10;86.50;;;;;;4926642;28;20433;-75
2023/06/23 10:09:06;;;;;;;3.00;2.07;;;33.10;85.90;;;;;;4926781;28;20429;-75
2023/06/23 10:11:41;;;;;;;6.07;2.20;;;33.00;86.50;;;;;;4953686;28;20425;-74
2023/06/23 10:14:12;;;;;;;3.95;2.20;;;33.10;87.40;;;;;;4926479;28;20423;-75
2023/06/23 10:16:41;;;;;;;6.72;2.30;;;33.10;87.40;;;;;;4928218;28;20439;-74
2023/06/23 10:19:08;;;;;;;4.70;2.30;;;32.90;87.60;;;;;;4922215;28;20428;-75
2023/06/23 10:21:35;;;;;;;3.88;2.33;;;32.90;86.60;;;;;;4952674;28;20438;-74
2023/06/23 10:24:15;;;;;;;4.15;2.17;;;33.00;85.90;;;;;;4937687;28;20463;-74
2023/06/23 10:26:45;;;;;;;3.00;2.00;;;32.90;85.50;;;;;;4931508;28;21514;-75
2023/06/23 10:29:19;;;;;;;2.33;2.00;;;32.80;87.80;;;;;;4934506;28;20416;-74
2023/06/23 10:31:47;;;;;;;3.53;2.20;;;32.60;86.00;;;;;;4928431;28;20472;-74
2023/06/23 10:34:16;;;;;;;5.95;2.50;;;32.50;85.90;;;;;;4934823;28;20436;-75
2023/06/23 10:36:48;;;;;;;3.80;2.10;;;32.30;86.90;;;;;;4943031;28;20500;-74
2023/06/23 10:39:16;;;;;;;4.50;2.10;;;32.30;88.40;;;;;;4929371;28;20896;-75
2023/06/23 10:41:47;;;;;;;2.60;2.20;;;32.40;88.10;;;;;;4960455;28;20770;-75
2023/06/23 10:44:16;;;;;;;4.10;2.40;;;32.40;87.70;;;;;;4962562;28;20498;-75
2023/06/23 10:46:42;;;;;;;6.00;2.30;;;32.40;87.50;;;;;;4940939;28;20410;-75
2023/06/23 10:49:09;;;;;;;5.97;2.20;;;32.40;86.20;;;;;;4940485;28;20500;-75
2023/06/23 10:51:37;;;;;;;3.88;2.10;;;32.30;88.20;;;;;;4917854;28;20431;-75
2023/06/23 10:54:07;;;;;;;5.38;2.40;;;32.20;86.20;;;;;;4930864;28;20420;-74
2023/06/23 10:56:44;;;;;;;4.55;2.10;;;32.20;88.20;;;;;;4963201;28;20435;-74
2023/06/23 10:59:27;;;;;;;4.18;2.03;;;32.20;88.20;;;;;;4941153;28;20428;-75
2023/06/23 11:02:07;;;;;;;3.63;2.10;;;32.20;87.60;;;;;;4944560;28;20539;-74
2023/06/23 11:05:01;;;;;;;2.20;2.00;;;32.10;88.10;;;;;;4943753;28;20437;-75
2023/06/23 11:07:28;;;;;;;4.43;2.20;;;32.00;89.20;;;;;;4941369;28;20433;-75
2023/06/23 11:09:54;;;;;;;3.88;2.20;;;31.90;86.00;;;;;;4931870;28;22612;-74
2023/06/23 11:12:37;;;;;;;2.60;2.07;;;31.70;86.00;;;;;;4924828;28;20517;-74
2023/06/23 11:15:23;;;;;;;2.42;1.98;;;31.80;88.10;;;;;;4963936;28;20433;-74
2023/06/23 11:18:06;;;;;;;3.17;1.92;;;31.90;85.30;;;;;;4936145;28;20478;-74
2023/06/23 11:20:38;;;;;;;4.03;2.10;;;31.90;87.10;;;;;;4929578;28;20432;-74
2023/06/23 11:23:13;;;;;;;2.90;2.00;;;31.90;86.60;;;;;;4956237;28;20431;-74
2023/06/23 11:25:49;;;;;;;3.83;1.90;;;31.90;86.10;;;;;;4934129;28;20966;-74
2023/06/23 11:28:37;;;;;;;4.75;2.13;;;31.80;85.30;;;;;;4957449;28;20477;-74
2023/06/23 11:31:12;;;;;;;2.78;1.92;;;31.70;85.20;;;;;;4935324;28;20477;-74
2023/06/23 11:33:59;;;;;;;7.15;2.00;;;31.60;86.50;;;;;;4930864;28;20476;-74
2023/06/23 11:36:28;;;;;;;8.40;2.08;;;31.70;84.50;;;;;;4931724;28;20462;-74
2023/06/23 11:38:56;;;;;;;3.07;1.90;;;31.60;84.50;;;;;;4930859;28;22305;-74
2023/06/23 11:41:29;;;;;;;5.00;2.30;;;31.50;85.70;;;;;;4925058;28;20428;-74
2023/06/23 11:44:03;;;;;;;5.20;2.22;;;31.50;86.80;;;;;;4936023;28;20544;-75
2023/06/23 11:46:34;;;;;;;7.45;2.63;;;31.50;91.00;;;;;;4933886;28;20469;-74
2023/06/23 11:49:13;;;;;;;5.88;2.72;;;31.50;95.10;;;;;;4938902;28;20448;-74
2023/06/23 11:51:40;;;;;;;6.53;2.60;;;31.40;95.80;;;;;;4930508;28;20447;-74
2023/06/23 11:54:07;;;;;;;4.40;2.42;;;31.10;95.90;;;;;;4944626;28;20451;-74
2023/06/23 11:56:34;;;;;;;4.65;2.45;;;31.00;94.70;;;;;;4935988;28;20932;-74
2023/06/23 11:59:04;;;;;;;3.10;2.20;;;30.90;94.30;;;;;;4924671;28;20428;-74
2023/06/23 12:01:30;;;;;;;3.38;2.42;;;30.80;93.70;;;;;;4933369;28;20506;-74
2023/06/23 12:03:56;;;;;;;3.95;2.38;;;30.80;94.20;;;;;;4931984;28;20539;-74
2023/06/23 12:06:27;;;;;;;4.00;2.38;;;30.90;95.20;;;;;;4936210;28;20458;-74
2023/06/23 12:08:54;;;;;;;3.88;2.40;;;30.90;94.80;;;;;;4956122;28;20414;-74
2023/06/23 12:11:22;;;;;;;6.23;2.50;;;30.90;95.10;;;;;;4922654;28;20402;-75
2023/06/23 12:13:54;;;;;;;4.85;2.50;;;30.90;94.30;;;;;;4931400;28;20416;-74
2023/06/23 12:16:20;;;;;;;4.18;2.40;;;30.90;94.30;;;;;;4937246;28;20775;-74
2023/06/23 12:18:49;;;;;;;4.35;2.40;;;30.90;93.80;;;;;;4953725;28;20908;-74
2023/06/23 12:21:18;;;;;;;6.13;2.40;;;30.70;94.00;;;;;;4953298;28;20434;-74
2023/06/23 12:23:45;;;;;;;4.22;2.60;;;30.60;94.30;;;;;;4942238;28;22509;-74
2023/06/23 12:26:13;;;;;;;3.67;2.50;;;30.50;94.80;;;;;;4946616;28;20505;-74
2023/06/23 12:28:40;;;;;;;4.63;2.80;;;30.40;95.00;;;;;;4938097;28;20414;-74
2023/06/23 12:31:07;;;;;;;4.53;2.53;;;30.40;95.30;;;;;;4929252;28;20793;-74
2023/06/23 12:33:38;;;;;;;6.07;2.30;;;30.40;95.80;;;;;;4946876;28;20470;-74
2023/06/23 12:36:07;;;;;;;4.65;2.63;;;30.30;95.80;;;;;;4938375;28;21266;-74
2023/06/23 12:38:37;;;;;;;5.70;2.20;;;30.30;95.60;;;;;;4944115;28;20428;-74
2023/06/23 12:41:23;;;;;;;6.20;2.40;;;30.30;95.30;;;;;;4934849;28;20415;-74
2023/06/23 12:43:53;;;;;;;3.53;2.17;;;30.10;96.60;;;;;;4935408;28;20440;-74
2023/06/23 12:46:25;;;;;;;3.28;2.35;;;30.20;93.30;;;;;;4941143;28;20429;-74
2023/06/23 12:48:55;;;;;;;3.08;2.10;;;30.20;94.60;;;;;;4945995;28;20416;-74
2023/06/23 12:51:36;;;;;;;4.07;2.50;;;30.30;94.80;;;;;;4941017;28;20726;-74
2023/06/23 12:54:04;;;;;;;5.07;2.20;;;30.20;94.90;;;;;;4936602;28;21118;-74
2023/06/23 12:56:30;;;;;;;4.22;2.55;;;30.30;94.70;;;;;;4946462;28;20419;-74
2023/06/23 12:58:57;;;;;;;3.50;2.10;;;30.30;95.30;;;;;;4933167;28;20430;-74
2023/06/23 13:01:24;;;;;;;4.28;2.20;;;30.20;94.20;;;;;;4948164;28;20900;-74
2023/06/23 13:03:51;;;;;;;5.40;2.55;;;30.10;93.00;;;;;;4970892;28;20545;-74
2023/06/23 13:06:17;;;;;;;3.15;2.17;;;30.10;94.20;;;;;;4941630;28;21396;-74
2023/06/23 13:08:44;;;;;;;3.22;2.25;;;30.00;94.30;;;;;;4938771;28;20413;-74